Time;durP1;ratioP1;P1;durP2;ratioP2;P2;SDS_P1;SDS_P2;PMS_P1;PMS_P2;Temp;Humidity;BMP_temperature;BMP_pressure;BME280_temperature;BME280_humidity;BME280_pressure;Samples;Min_cycle;Max_cycle;Signal;HPM_P1;HPM_P2
2021/09/09 00:01:08;;;;;;;;;;;;;;;22.29;30.57;98479.22;4907802;29;588;-80
2021/09/09 00:03:35;;;;;;;;;;;;;;;22.24;30.70;98476.88;4906477;29;2173;-80
2021/09/09 00:06:00;;;;;;;;;;;;;;;22.42;30.45;98481.34;4906735;29;980;-80
2021/09/09 00:08:26;;;;;;;;;;;;;;;22.59;29.79;98480.16;4906858;29;1043;-80
2021/09/09 00:10:52;;;;;;;;;;;;;;;22.55;30.09;98470.94;4907611;29;695;-80
2021/09/09 00:13:19;;;;;;;;;;;;;;;22.56;30.11;98472.53;4906742;29;1357;-80
2021/09/09 00:15:46;;;;;;;;;;;;;;;22.60;30.04;98476.09;4907541;29;616;-80
2021/09/09 00:18:12;;;;;;;;;;;;;;;22.52;29.74;98475.44;4906490;29;900;-80
2021/09/09 00:20:39;;;;;;;;;;;;;;;22.49;29.81;98478.38;4906547;29;967;-80
2021/09/09 00:23:05;;;;;;;;;;;;;;;22.61;30.00;98477.69;4906295;29;1910;-78
2021/09/09 00:25:30;;;;;;;;;;;;;;;22.49;30.13;98469.88;4907325;29;1424;-80
2021/09/09 00:27:57;;;;;;;;;;;;;;;22.43;30.24;98460.25;4907264;29;632;-80
2021/09/09 00:30:22;;;;;;;;;;;;;;;22.56;30.04;98469.69;4907170;29;768;-80
2021/09/09 00:32:48;;;;;;;;;;;;;;;22.45;30.14;98463.47;4890902;29;865;-80
2021/09/09 00:35:14;;;;;;;;;;;;;;;22.51;30.08;98467.38;4906658;29;1432;-80
2021/09/09 00:37:41;;;;;;;;;;;;;;;22.53;29.85;98462.84;4906352;29;834;-80
2021/09/09 00:40:07;;;;;;;;;;;;;;;22.55;29.96;98462.44;4906380;29;696;-80
2021/09/09 00:42:33;;;;;;;;;;;;;;;22.58;29.70;98468.00;4906195;29;1915;-80
2021/09/09 00:44:58;;;;;;;;;;;;;;;22.62;29.77;98457.38;4906717;29;1465;-80
2021/09/09 00:47:24;;;;;;;;;;;;;;;22.60;29.97;98462.72;4906730;29;986;-80
2021/09/09 00:49:49;;;;;;;;;;;;;;;22.51;30.06;98456.03;4905914;29;979;-80
2021/09/09 00:52:15;;;;;;;;;;;;;;;22.51;30.12;98456.03;4905948;29;1330;-79
2021/09/09 00:54:41;;;;;;;;;;;;;;;22.52;29.83;98457.63;4906798;29;676;-80
2021/09/09 00:57:06;;;;;;;;;;;;;;;22.58;29.72;98450.19;4906119;29;738;-80
2021/09/09 00:59:32;;;;;;;;;;;;;;;22.46;29.92;98450.88;4906826;29;706;-80
2021/09/09 01:01:58;;;;;;;;;;;;;;;22.40;30.20;98444.16;4906128;29;1333;-78
2021/09/09 01:04:23;;;;;;;;;;;;;;;22.32;30.12;98449.97;4889935;29;1992;-80
2021/09/09 01:06:49;;;;;;;;;;;;;;;22.48;30.19;98446.34;4905836;29;987;-80
2021/09/09 01:09:14;;;;;;;;;;;;;;;22.42;30.15;98441.66;4890337;29;740;-80
2021/09/09 01:11:40;;;;;;;;;;;;;;;22.51;30.31;98439.81;4889853;29;875;-80
2021/09/09 01:14:06;;;;;;;;;;;;;;;22.44;30.30;98444.88;4906217;29;1439;-80
2021/09/09 01:16:32;;;;;;;;;;;;;;;22.49;30.06;98447.19;4905527;29;976;-79
2021/09/09 01:18:57;;;;;;;;;;;;;;;22.58;30.23;98447.34;4905296;29;866;-80
2021/09/09 01:21:23;;;;;;;;;;;;;;;22.53;30.20;98453.56;4906221;29;1082;-80
2021/09/09 01:23:48;;;;;;;;;;;;;;;22.45;30.10;98452.13;4905966;29;1988;-80
2021/09/09 01:26:14;;;;;;;;;;;;;;;22.53;30.19;98442.22;4890367;29;1004;-80
2021/09/09 01:28:40;;;;;;;;;;;;;;;22.44;30.27;98457.00;4905501;29;656;-80
2021/09/09 01:31:05;;;;;;;;;;;;;;;22.57;30.22;98448.59;4905242;29;885;-79
2021/09/09 01:33:30;;;;;;;;;;;;;;;22.46;30.16;98442.38;4905873;29;897;-80
2021/09/09 01:35:56;;;;;;;;;;;;;;;22.43;30.35;98443.25;4905019;29;1453;-80
2021/09/09 01:38:22;;;;;;;;;;;;;;;22.53;30.32;98436.53;4906021;29;639;-80
2021/09/09 01:40:48;;;;;;;;;;;;;;;22.34;30.53;98430.50;4905051;29;1397;-80
2021/09/09 01:43:13;;;;;;;;;;;;;;;22.49;30.23;98430.16;4905819;29;1980;-80
2021/09/09 01:45:38;;;;;;;;;;;;;;;22.52;30.25;98434.94;4905611;29;892;-80
2021/09/09 01:48:04;;;;;;;;;;;;;;;22.34;30.26;98430.50;4904758;29;975;-79
2021/09/09 01:50:30;;;;;;;;;;;;;;;22.31;30.27;98431.34;4905771;29;978;-80
2021/09/09 01:52:55;;;;;;;;;;;;;;;22.41;30.53;98434.41;4905446;29;1364;-80
2021/09/09 01:55:20;;;;;;;;;;;;;;;22.57;30.39;98431.59;4905164;29;653;-80
2021/09/09 01:57:46;;;;;;;;;;;;;;;22.59;29.87;98434.78;4905135;29;632;-80
2021/09/09 02:00:12;;;;;;;;;;;;;;;22.51;30.05;98436.19;4904685;29;1058;-80
2021/09/09 02:02:37;;;;;;;;;;;;;;;22.47;30.29;98421.28;4904982;29;1970;-80
2021/09/09 02:05:03;;;;;;;;;;;;;;;22.53;29.94;98437.31;4904880;29;959;-81
2021/09/09 02:07:28;;;;;;;;;;;;;;;22.52;30.07;98434.94;4905603;29;691;-80
2021/09/09 02:09:54;;;;;;;;;;;;;;;22.50;30.21;98438.22;4904816;29;648;-80
2021/09/09 02:12:19;;;;;;;;;;;;;;;22.36;30.39;98439.34;4905222;29;1372;-80
2021/09/09 02:14:45;;;;;;;;;;;;;;;22.55;30.14;98434.06;4905231;29;982;-80
2021/09/09 02:17:10;;;;;;;;;;;;;;;22.49;30.20;98433.00;4905143;29;986;-80
2021/09/09 02:19:36;;;;;;;;;;;;;;;22.52;30.12;98426.44;4904645;29;932;-80
2021/09/09 02:22:01;;;;;;;;;;;;;;;22.51;30.21;98433.34;4904714;29;685;-80
2021/09/09 02:24:27;;;;;;;;;;;;;;;22.42;30.55;98441.66;4904273;29;1911;-80
2021/09/09 02:26:52;;;;;;;;;;;;;;;22.41;30.29;98434.41;4904571;29;625;-80
2021/09/09 02:29:18;;;;;;;;;;;;;;;22.47;30.28;98446.81;4905221;29;1022;-80
2021/09/09 02:31:43;;;;;;;;;;;;;;;22.41;30.41;98442.91;4903940;29;998;-80
2021/09/09 02:34:09;;;;;;;;;;;;;;;22.47;30.61;98436.25;4904852;29;1310;-80
2021/09/09 02:36:34;;;;;;;;;;;;;;;22.38;30.59;98441.72;4905224;29;685;-80
2021/09/09 02:39:00;;;;;;;;;;;;;;;22.54;30.17;98438.94;4904735;29;759;-80
2021/09/09 02:41:25;;;;;;;;;;;;;;;22.49;30.23;98435.84;4905031;29;1024;-80
2021/09/09 02:44:13;;;;;;;;;;;;;;;22.43;30.55;98438.38;4904487;29;1911;-79
2021/09/09 02:46:38;;;;;;;;;;;;;;;22.42;30.34;98441.66;4904063;29;1302;-80
2021/09/09 02:49:05;;;;;;;;;;;;;;;22.48;30.27;98446.34;4904257;29;847;-80
2021/09/09 02:51:30;;;;;;;;;;;;;;;22.51;30.38;98448.31;4904346;29;711;-80
2021/09/09 02:53:56;;;;;;;;;;;;;;;22.48;30.35;98446.34;4905062;29;683;-80
2021/09/09 02:56:21;;;;;;;;;;;;;;;22.50;30.13;98449.56;4904729;29;1416;-79
2021/09/09 02:58:47;;;;;;;;;;;;;;;22.41;30.59;98442.91;4904475;29;1412;-80
2021/09/09 03:01:12;;;;;;;;;;;;;;;22.38;30.27;98447.41;4904102;29;860;-80
2021/09/09 03:03:38;;;;;;;;;;;;;;;22.36;30.58;98445.00;4904840;29;1907;-80
2021/09/09 03:06:03;;;;;;;;;;;;;;;22.41;30.31;98457.09;4904495;29;1435;-80
2021/09/09 03:08:29;;;;;;;;;;;;;;;22.24;30.50;98459.88;4904322;29;636;-80
2021/09/09 03:10:55;;;;;;;;;;;;;;;22.34;30.46;98461.69;4904849;29;656;-79
2021/09/09 03:13:20;;;;;;;;;;;;;;;22.36;30.38;98466.91;4903876;29;910;-80
2021/09/09 03:15:46;;;;;;;;;;;;;;;22.44;30.48;98464.72;4903685;29;1317;-79
2021/09/09 03:18:11;;;;;;;;;;;;;;;22.45;30.11;98466.31;4904157;29;1433;-80
2021/09/09 03:20:37;;;;;;;;;;;;;;;22.50;30.38;98477.13;4904821;29;608;-80
2021/09/09 03:23:02;;;;;;;;;;;;;;;22.39;30.15;98474.53;4903940;29;1903;-80
2021/09/09 03:25:27;;;;;;;;;;;;;;;22.45;30.27;98480.50;4904907;29;712;-80
2021/09/09 03:27:53;;;;;;;;;;;;;;;22.55;30.29;98485.13;4904373;29;868;-80
2021/09/09 03:30:18;;;;;;;;;;;;;;;22.47;30.21;98481.63;4904497;29;853;-80
2021/09/09 03:32:44;;;;;;;;;;;;;;;22.39;30.24;98483.03;4904715;29;907;-80
2021/09/09 03:35:09;;;;;;;;;;;;;;;22.45;30.35;98486.16;4904069;29;586;-80
2021/09/09 03:37:35;;;;;;;;;;;;;;;22.39;30.57;98476.59;4888290;29;1386;-80
2021/09/09 03:40:00;;;;;;;;;;;;;;;22.40;30.43;98478.16;4904576;29;1473;-80
2021/09/09 03:42:26;;;;;;;;;;;;;;;22.43;30.34;98478.06;4904188;29;1037;-79
2021/09/09 03:44:51;;;;;;;;;;;;;;;22.40;30.45;98478.97;4907893;29;1903;-80
2021/09/09 03:47:17;;;;;;;;;;;;;;;22.28;30.66;98483.28;4907165;29;1367;-80
2021/09/09 03:49:42;;;;;;;;;;;;;;;22.51;30.17;98478.72;4891683;29;787;-80
2021/09/09 03:52:08;;;;;;;;;;;;;;;22.56;30.20;98483.88;4907211;29;1421;-80
2021/09/09 03:54:33;;;;;;;;;;;;;;;22.50;30.28;98488.47;4907788;29;1380;-80
2021/09/09 03:56:59;;;;;;;;;;;;;;;22.47;30.12;98495.00;4906780;29;909;-80
2021/09/09 03:59:24;;;;;;;;;;;;;;;22.42;30.42;98484.19;4907510;29;893;-80
2021/09/09 04:01:49;;;;;;;;;;;;;;;22.47;30.35;98490.13;4891123;29;1402;-80
2021/09/09 04:04:15;;;;;;;;;;;;;;;22.45;30.17;98486.16;4907895;29;1965;-80
2021/09/09 04:06:40;;;;;;;;;;;;;;;22.51;30.26;98490.88;4907202;29;620;-80
2021/09/09 04:09:06;;;;;;;;;;;;;;;22.43;30.39;98485.78;4907230;29;677;-80
2021/09/09 04:11:31;;;;;;;;;;;;;;;22.41;30.15;98479.75;4906127;29;917;-80
2021/09/09 04:13:57;;;;;;;;;;;;;;;22.44;30.30;98484.56;4907636;29;813;-80
2021/09/09 04:16:22;;;;;;;;;;;;;;;22.33;30.51;98485.59;4907467;29;939;-81
2021/09/09 04:18:48;;;;;;;;;;;;;;;22.31;30.47;98482.38;4907523;29;676;-80
2021/09/09 04:21:13;;;;;;;;;;;;;;;22.46;30.08;98482.88;4907464;29;699;-80
2021/09/09 04:23:39;;;;;;;;;;;;;;;22.53;29.91;98487.59;4906608;29;1907;-80
2021/09/09 04:26:04;;;;;;;;;;;;;;;22.38;30.53;98486.31;4907080;29;899;-80
2021/09/09 04:28:30;;;;;;;;;;;;;;;22.34;30.12;98481.53;4906337;29;948;-80
2021/09/09 04:30:55;;;;;;;;;;;;;;;22.32;30.49;98478.31;4907178;29;877;-81
2021/09/09 04:33:20;;;;;;;;;;;;;;;22.40;30.36;98469.66;4907160;29;617;-79
2021/09/09 04:35:46;;;;;;;;;;;;;;;22.41;30.13;98474.09;4906116;29;923;-80
2021/09/09 04:38:11;;;;;;;;;;;;;;;22.51;30.25;98473.84;4907169;29;675;-80
2021/09/09 04:40:37;;;;;;;;;;;;;;;22.55;30.02;98470.94;4906076;29;907;-80
2021/09/09 04:43:04;;;;;;;;;;;;;;;22.50;30.07;98472.25;4906832;29;1903;-81
2021/09/09 04:45:29;;;;;;;;;;;;;;;22.40;30.43;98469.66;4906262;29;939;-80
2021/09/09 04:47:55;;;;;;;;;;;;;;;22.39;30.37;98470.91;4907123;29;731;-80
2021/09/09 04:50:20;;;;;;;;;;;;;;;22.43;30.38;98465.94;4906252;29;644;-80
2021/09/09 04:52:46;;;;;;;;;;;;;;;22.41;30.21;98468.41;4905409;29;847;-80
2021/09/09 04:55:11;;;;;;;;;;;;;;;22.35;30.44;98466.09;4906527;29;1088;-80
2021/09/09 04:57:37;;;;;;;;;;;;;;;22.43;30.49;98465.94;4906553;29;898;-80
2021/09/09 05:00:02;;;;;;;;;;;;;;;22.24;30.56;98464.75;4906665;29;927;-80
2021/09/09 05:02:28;;;;;;;;;;;;;;;22.38;30.50;98458.75;4908920;29;1138;-79
2021/09/09 05:04:54;;;;;;;;;;;;;;;22.35;30.43;98466.09;4919060;29;1903;-80
2021/09/09 05:07:19;;;;;;;;;;;;;;;22.25;30.54;98458.63;4905903;29;637;-80
2021/09/09 05:09:45;;;;;;;;;;;;;;;22.42;30.44;98464.34;4905444;29;856;-81
2021/09/09 05:12:10;;;;;;;;;;;;;;;22.48;30.17;98468.25;4905325;29;806;-80
2021/09/09 05:14:36;;;;;;;;;;;;;;;22.44;30.24;98467.56;4905945;29;958;-79
2021/09/09 05:17:02;;;;;;;;;;;;;;;22.44;30.34;98461.88;4906196;29;860;-79
2021/09/09 05:19:27;;;;;;;;;;;;;;;22.32;30.54;98466.97;4905348;29;887;-80
2021/09/09 05:21:53;;;;;;;;;;;;;;;22.24;30.82;98471.22;4906117;29;691;-79
2021/09/09 05:24:21;;;;;;;;;;;;;;;22.40;30.39;98469.66;4905330;29;1981;-79
2021/09/09 05:26:47;;;;;;;;;;;;;;;22.47;30.17;98467.47;4905927;29;1152;-80
2021/09/09 05:29:12;;;;;;;;;;;;;;;22.38;30.38;98460.78;4905594;29;906;-80
2021/09/09 05:31:38;;;;;;;;;;;;;;;22.52;30.19;98463.31;4889843;29;1207;-80
2021/09/09 05:34:03;;;;;;;;;;;;;;;22.67;30.05;98453.22;4906094;29;612;-81
2021/09/09 05:36:29;;;;;;;;;;;;;;;22.58;29.96;98464.38;4905154;29;776;-80
2021/09/09 05:38:54;;;;;;;;;;;;;;;22.40;30.42;98466.84;4905898;29;640;-80
2021/09/09 05:41:20;;;;;;;;;;;;;;;22.56;30.36;98466.84;4904887;29;1038;-80
2021/09/09 05:43:46;;;;;;;;;;;;;;;22.51;30.29;98456.03;4904947;29;1915;-80
2021/09/09 05:46:11;;;;;;;;;;;;;;;22.67;29.89;98452.44;4904850;29;861;-80
2021/09/09 05:48:37;;;;;;;;;;;;;;;22.43;30.48;98454.59;4905069;29;926;-80
2021/09/09 05:51:02;;;;;;;;;;;;;;;22.38;30.56;98457.94;4889230;29;965;-78
2021/09/09 05:53:28;;;;;;;;;;;;;;;22.52;30.45;98451.97;4905771;29;707;-80
2021/09/09 05:55:54;;;;;;;;;;;;;;;22.52;30.46;98444.25;4904942;29;934;-79
2021/09/09 05:58:19;;;;;;;;;;;;;;;22.43;30.62;98448.91;4904643;29;924;-78
2021/09/09 06:00:45;;;;;;;;;;;;;;;22.36;30.78;98445.00;4905693;29;927;-78
2021/09/09 06:03:10;;;;;;;;;;;;;;;22.64;30.15;98439.94;4905458;29;1902;-78
2021/09/09 06:05:36;;;;;;;;;;;;;;;22.60;30.44;98442.06;4904078;29;723;-80
2021/09/09 06:08:05;;;;;;;;;;;;;;;22.54;30.34;98432.47;4904912;29;712;-80
2021/09/09 06:10:32;;;;;;;;;;;;;;;22.46;30.47;98436.72;4907049;29;1134;-79
2021/09/09 06:12:57;;;;;;;;;;;;;;;22.58;30.56;98424.66;4903719;29;1182;-80
2021/09/09 06:15:22;;;;;;;;;;;;;;;22.56;30.69;98430.78;4904943;29;1122;-79
2021/09/09 06:17:48;;;;;;;;;;;;;;;22.38;30.74;98429.59;4915360;29;1260;-79
2021/09/09 06:20:14;;;;;;;;;;;;;;;22.63;30.49;98436.28;4914082;29;1189;-79
2021/09/09 06:22:40;;;;;;;;;;;;;;;22.44;30.63;98439.19;4912793;29;1899;-80
2021/09/09 06:25:10;;;;;;;;;;;;;;;22.50;30.66;98431.75;4893642;29;1127;-79
2021/09/09 06:27:35;;;;;;;;;;;;;;;22.56;30.50;98442.13;4903265;29;1185;-80
2021/09/09 06:30:01;;;;;;;;;;;;;;;22.48;31.03;98445.56;4913568;29;1232;-80
2021/09/09 06:32:26;;;;;;;;;;;;;;;22.33;30.98;98440.25;4912104;29;1311;-80
2021/09/09 06:34:52;;;;;;;;;;;;;;;22.42;30.92;98442.47;4913492;29;1236;-80
2021/09/09 06:37:18;;;;;;;;;;;;;;;22.40;31.23;98438.47;4904457;29;1192;-80
2021/09/09 06:39:43;;;;;;;;;;;;;;;22.35;31.17;98437.75;4904551;29;949;-79
2021/09/09 06:42:09;;;;;;;;;;;;;;;22.43;31.15;98443.25;4905904;29;1298;-79
2021/09/09 06:44:35;;;;;;;;;;;;;;;22.51;30.83;98444.69;4912199;29;1986;-79
2021/09/09 06:47:00;;;;;;;;;;;;;;;22.37;31.19;98445.81;4914568;29;1296;-80
2021/09/09 06:49:26;;;;;;;;;;;;;;;22.44;31.07;98453.38;4912163;29;1332;-78
2021/09/09 06:51:51;;;;;;;;;;;;;;;22.41;30.96;98445.75;4914268;29;1359;-80
2021/09/09 06:54:17;;;;;;;;;;;;;;;22.40;31.33;98444.16;4908487;29;1158;-79
2021/09/09 06:56:43;;;;;;;;;;;;;;;22.49;31.15;98441.50;4903747;29;890;-80
2021/09/09 06:59:08;;;;;;;;;;;;;;;22.54;31.15;98435.31;4904176;29;988;-80
2021/09/09 07:01:34;;;;;;;;;;;;;;;22.56;31.12;98435.66;4905080;29;1150;-78
2021/09/09 07:03:59;;;;;;;;;;;;;;;22.50;31.22;98431.75;4913980;29;1907;-79
2021/09/09 07:06:25;;;;;;;;;;;;;;;22.55;31.07;98434.88;4904343;29;1319;-78
2021/09/09 07:08:50;;;;;;;;;;;;;;;22.56;31.21;98435.66;4911723;29;1263;-79
2021/09/09 07:11:16;;;;;;;;;;;;;;;22.50;31.25;98437.44;4908619;29;1209;-79
2021/09/09 07:13:41;;;;;;;;;;;;;;;22.50;31.20;98420.41;4904211;29;1185;-78
2021/09/09 07:16:07;;;;;;;;;;;;;;;22.49;31.15;98436.63;4914805;29;1277;-78
2021/09/09 07:18:33;;;;;;;;;;;;;;;22.59;31.29;98434.78;4918914;29;1165;-78
2021/09/09 07:20:59;;;;;;;;;;;;;;;22.57;30.95;98443.72;4907118;29;1253;-79
2021/09/09 07:23:25;;;;;;;;;;;;;;;22.61;31.14;98437.97;4912652;29;1899;-79
2021/09/09 07:25:51;;;;;;;;;;;;;;;22.51;31.43;98447.53;4909170;29;1178;-78
2021/09/09 07:28:16;;;;;;;;;;;;;;;22.43;31.85;98437.59;4916170;29;1173;-79
2021/09/09 07:30:42;;;;;;;;;;;;;;;22.55;31.60;98434.88;4918067;29;1363;-78
2021/09/09 07:33:07;;;;;;;;;;;;;;;22.71;30.93;98427.63;4919189;29;1169;-79
2021/09/09 07:35:33;;;;;;;;;;;;;;;22.71;30.94;98436.13;4906764;29;1360;-79
2021/09/09 07:37:59;;;;;;;;;;;;;;;22.61;31.12;98432.31;4915526;29;1154;-80
2021/09/09 07:40:24;;;;;;;;;;;;;;;22.60;31.24;98436.38;4915746;29;1394;-78
2021/09/09 07:42:49;;;;;;;;;;;;;;;22.65;31.04;98435.84;4914627;29;1907;-78
2021/09/09 07:45:15;;;;;;;;;;;;;;;22.72;31.05;98435.69;4906946;29;1291;-78
2021/09/09 07:47:40;;;;;;;;;;;;;;;22.59;31.17;98444.09;4916570;29;1157;-78
2021/09/09 07:50:10;;;;;;;;;;;;;;;22.60;30.98;98442.06;4916272;29;1192;-79
2021/09/09 07:52:36;;;;;;;;;;;;;;;22.60;30.91;98447.72;4914775;29;1043;-79
2021/09/09 07:55:02;;;;;;;;;;;;;;;22.56;31.06;98444.16;4915378;29;1390;-79
2021/09/09 07:57:27;;;;;;;;;;;;;;;22.58;30.99;98444.50;4916095;29;1232;-79
2021/09/09 07:59:53;;;;;;;;;;;;;;;22.51;31.41;98450.38;4906421;29;1241;-78
2021/09/09 08:02:18;;;;;;;;;;;;;;;22.68;30.80;98454.81;4915968;29;1197;-80
2021/09/09 08:04:44;;;;;;;;;;;;;;;22.68;30.72;98449.13;4915315;29;2013;-79
2021/09/09 08:07:09;;;;;;;;;;;;;;;22.67;30.80;98444.72;4911877;29;1202;-79
2021/09/09 08:09:35;;;;;;;;;;;;;;;22.62;31.08;98450.91;4914543;29;1350;-81
2021/09/09 08:12:01;;;;;;;;;;;;;;;22.51;31.27;98439.03;4906442;29;1205;-79
2021/09/09 08:14:27;;;;;;;;;;;;;;;22.56;31.12;98452.69;4916278;29;1308;-78
2021/09/09 08:16:53;;;;;;;;;;;;;;;22.60;31.22;98447.72;4915220;29;1308;-79
2021/09/09 08:19:18;;;;;;;;;;;;;;;22.70;31.05;98451.56;4916130;29;1173;-78
2021/09/09 08:21:44;;;;;;;;;;;;;;;22.58;31.19;98453.81;4911696;29;1233;-78
2021/09/09 08:24:09;;;;;;;;;;;;;;;22.72;31.03;98440.56;4913467;29;1895;-78
2021/09/09 08:26:35;;;;;;;;;;;;;;;22.65;31.19;98443.56;4906905;29;936;-80
2021/09/09 08:29:00;;;;;;;;;;;;;;;22.51;31.47;98444.69;4906421;29;622;-79
2021/09/09 08:31:27;;;;;;;;;;;;;;;22.58;31.08;98424.66;4908713;29;1115;-79
2021/09/09 08:33:53;;;;;;;;;;;;;;;22.66;30.92;98439.50;4906550;29;1395;-79
2021/09/09 08:36:21;;;;;;;;;;;;;;;22.65;30.86;98437.91;4911649;29;1325;-79
2021/09/09 08:38:47;;;;;;;;;;;;;;;22.53;31.11;98436.53;4911080;29;1214;-79
2021/09/09 08:41:12;;;;;;;;;;;;;;;22.54;30.90;98443.81;4914048;29;1201;-79
2021/09/09 08:43:41;;;;;;;;;;;;;;;22.57;31.04;98431.59;4915072;29;1903;-79
2021/09/09 08:46:06;;;;;;;;;;;;;;;22.56;30.86;98430.00;4912440;29;1225;-79
2021/09/09 08:48:32;;;;;;;;;;;;;;;22.67;30.55;98436.19;4916306;29;1220;-79
2021/09/09 08:50:57;;;;;;;;;;;;;;;22.55;30.69;98420.69;4911073;29;1153;-79
2021/09/09 08:53:23;;;;;;;;;;;;;;;22.49;30.72;98421.66;4906181;29;1315;-79
2021/09/09 08:55:49;;;;;;;;;;;;;;;22.47;30.61;98421.28;4907363;29;1284;-78
2021/09/09 08:58:15;;;;;;;;;;;;;;;22.47;30.69;98409.94;4906042;29;1256;-80
2021/09/09 09:00:59;;;;;;;;;;;;;;;22.52;30.53;98434.94;4916413;29;1385;-79
2021/09/09 09:03:40;;;;;;;;;;;;;;;22.44;30.73;98417.31;4906195;29;1911;-79
2021/09/09 09:06:09;;;;;;;;;;;;;;;22.50;30.38;98414.75;4905897;29;1193;-78
2021/09/09 09:08:47;;;;;;;;;;;;;;;22.69;30.32;98413.88;4910076;29;1310;-78
2021/09/09 09:11:14;;;;;;;;;;;;;;;22.46;30.57;98409.16;4912854;29;1225;-79
2021/09/09 09:13:39;;;;;;;;;;;;;;;22.47;30.53;98409.94;4913687;29;1288;-78
2021/09/09 09:16:05;;;;;;;;;;;;;;;22.53;30.26;98408.19;4905644;29;1312;-80
2021/09/09 09:18:30;;;;;;;;;;;;;;;22.66;30.33;98416.78;4905134;29;788;-80
2021/09/09 09:20:59;;;;;;;;;;;;;;;22.49;30.41;98413.94;4889362;29;993;-80
2021/09/09 09:23:43;;;;;;;;;;;;;;;22.68;30.34;98415.09;4905649;29;1907;-80
2021/09/09 09:26:11;;;;;;;;;;;;;;;22.49;30.36;98425.28;4906078;29;703;-80
2021/09/09 09:28:38;;;;;;;;;;;;;;;22.56;30.16;98424.31;4905341;29;691;-80
2021/09/09 09:31:31;;;;;;;;;;;;;;;22.56;30.27;98421.47;4905166;29;605;-79
2021/09/09 09:34:04;;;;;;;;;;;;;;;22.42;30.64;98401.97;4905077;29;984;-80
2021/09/09 09:36:30;;;;;;;;;;;;;;;22.43;30.61;98414.91;4904376;29;875;-80
2021/09/09 09:38:56;;;;;;;;;;;;;;;22.53;30.46;98413.84;4904165;29;957;-80
2021/09/09 09:41:23;;;;;;;;;;;;;;;22.55;30.07;98417.84;4904026;29;1028;-80
2021/09/09 09:43:55;;;;;;;;;;;;;;;22.48;30.25;98408.69;4905041;29;1981;-80
2021/09/09 09:46:28;;;;;;;;;;;;;;;22.41;30.65;98408.88;4905081;29;647;-79
2021/09/09 09:48:54;;;;;;;;;;;;;;;22.52;30.32;98415.88;4904784;29;1102;-79
2021/09/09 09:51:37;;;;;;;;;;;;;;;22.67;30.09;98413.50;4911740;29;1008;-78
2021/09/09 09:54:09;;;;;;;;;;;;;;;22.50;30.22;98411.91;4914178;29;1315;-78
2021/09/09 09:56:37;;;;;;;;;;;;;;;22.54;30.04;98402.09;4912260;29;1130;-79
2021/09/09 09:59:03;;;;;;;;;;;;;;;22.44;30.13;98397.47;4913710;29;1284;-78
2021/09/09 10:01:30;;;;;;;;;;;;;;;22.38;30.30;98401.25;4904872;29;1304;-79
2021/09/09 10:03:55;;;;;;;;;;;;;;;22.34;30.48;98415.53;4913409;29;1919;-78
2021/09/09 10:06:21;;;;;;;;;;;;;;;22.41;30.44;98400.38;4912832;29;1198;-78
2021/09/09 10:08:46;;;;;;;;;;;;;;;22.55;29.96;98406.50;4907029;29;1296;-78
2021/09/09 10:11:12;;;;;;;;;;;;;;;22.68;29.64;98403.75;4904861;29;1188;-78
2021/09/09 10:13:37;;;;;;;;;;;;;;;22.52;29.74;98406.59;4913650;29;1379;-79
2021/09/09 10:16:03;;;;;;;;;;;;;;;22.53;29.97;98408.19;4904724;29;1355;-79
2021/09/09 10:18:28;;;;;;;;;;;;;;;22.48;29.95;98400.19;4914418;29;1340;-79
2021/09/09 10:20:54;;;;;;;;;;;;;;;22.52;30.17;98401.72;4910970;29;1201;-79
2021/09/09 10:23:20;;;;;;;;;;;;;;;22.58;30.03;98396.31;4912606;29;1969;-79
2021/09/09 10:25:46;;;;;;;;;;;;;;;22.43;29.97;98400.72;4914158;29;1431;-79
2021/09/09 10:28:30;;;;;;;;;;;;;;;22.46;30.03;98403.47;4904682;29;1304;-78
2021/09/09 10:31:05;;;;;;;;;;;;;;;22.54;29.74;98399.25;4911180;29;1162;-79
2021/09/09 10:33:31;;;;;;;;;;;;;;;22.41;30.04;98398.34;4909624;29;1167;-79
2021/09/09 10:35:56;;;;;;;;;;;;;;;22.47;29.88;98390.88;4905259;29;1145;-78
2021/09/09 10:38:23;;;;;;;;;;;;;;;22.44;29.89;98393.84;4911347;29;1214;-80
2021/09/09 10:40:49;;;;;;;;;;;;;;;22.44;30.21;98397.47;4904795;29;987;-79
2021/09/09 10:43:24;;;;;;;;;;;;;;;22.56;29.98;98395.97;4892891;29;1910;-80
2021/09/09 10:45:58;;;;;;;;;;;;;;;22.39;30.18;98388.69;4909034;29;1236;-80
2021/09/09 10:48:24;;;;;;;;;;;;;;;22.51;29.97;98393.66;4895826;29;1401;-80
2021/09/09 10:51:04;;;;;;;;;;;;;;;22.42;30.01;98396.28;4904895;29;1182;-79
2021/09/09 10:53:36;;;;;;;;;;;;;;;22.60;30.10;98391.00;4914562;29;1242;-80
2021/09/09 10:56:12;;;;;;;;;;;;;;;22.61;29.74;98386.94;4915935;29;1316;-80
2021/09/09 10:58:38;;;;;;;;;;;;;;;22.48;30.03;98366.16;4907082;29;1249;-80
2021/09/09 11:01:06;;;;;;;;;;;;;;;22.45;30.14;98392.59;4908144;29;758;-80
2021/09/09 11:03:42;;;;;;;;;;;;;;;22.61;29.89;98386.94;4907876;29;1890;-79
2021/09/09 11:06:07;;;;;;;;;;;;;;;22.52;29.77;98379.03;4891512;29;903;-80
2021/09/09 11:08:33;;;;;;;;;;;;;;;22.63;29.82;98368.22;4908102;29;971;-80
2021/09/09 11:10:58;;;;;;;;;;;;;;;22.39;30.22;98375.31;4908512;29;1038;-80
2021/09/09 11:13:27;;;;;;;;;;;;;;;22.46;29.90;98360.16;4908289;29;640;-79
2021/09/09 11:15:52;;;;;;;;;;;;;;;22.34;30.08;98362.44;4907026;29;930;-80
2021/09/09 11:18:27;;;;;;;;;;;;;;;22.38;30.25;98367.22;4907688;29;682;-80
2021/09/09 11:21:02;;;;;;;;;;;;;;;22.45;30.16;98361.41;4908043;29;903;-80
2021/09/09 11:23:27;;;;;;;;;;;;;;;22.56;30.00;98353.41;4907844;29;1887;-80
2021/09/09 11:25:53;;;;;;;;;;;;;;;22.50;29.86;98361.66;4907425;29;612;-78
2021/09/09 11:28:19;;;;;;;;;;;;;;;22.44;29.83;98351.31;4907044;29;793;-80
2021/09/09 11:31:03;;;;;;;;;;;;;;;22.43;30.09;98352.53;4908010;29;679;-78
2021/09/09 11:33:29;;;;;;;;;;;;;;;22.31;30.19;98334.97;4907988;29;647;-80
2021/09/09 11:36:01;;;;;;;;;;;;;;;22.51;29.88;98334.09;4907030;29;1047;-78
2021/09/09 11:38:30;;;;;;;;;;;;;;;22.50;29.84;98333.31;4907982;29;941;-80
2021/09/09 11:41:16;;;;;;;;;;;;;;;22.44;30.04;98337.13;4907320;29;1010;-80
2021/09/09 11:43:46;;;;;;;;;;;;;;;22.44;29.81;98331.44;4907108;29;1903;-80
2021/09/09 11:46:12;;;;;;;;;;;;;;;22.46;29.86;98334.63;4906708;29;900;-80
2021/09/09 11:48:37;;;;;;;;;;;;;;;22.27;30.10;98328.59;4907016;29;620;-80
2021/09/09 11:51:02;;;;;;;;;;;;;;;22.47;29.75;98330.56;4907374;29;936;-80
2021/09/09 11:53:28;;;;;;;;;;;;;;;22.54;29.87;98330.38;4907344;29;838;-80
2021/09/09 11:55:54;;;;;;;;;;;;;;;22.48;29.90;98326.47;4907099;29;1435;-80
2021/09/09 11:58:38;;;;;;;;;;;;;;;22.49;29.69;98322.41;4906912;29;696;-79
2021/09/09 12:01:04;;;;;;;;;;;;;;;22.40;29.77;98319.41;4890698;29;920;-80
2021/09/09 12:03:30;;;;;;;;;;;;;;;22.45;29.87;98330.22;4905747;29;1978;-80
2021/09/09 12:05:56;;;;;;;;;;;;;;;22.36;30.04;98325.94;4906540;29;921;-80
2021/09/09 12:08:21;;;;;;;;;;;;;;;22.46;29.92;98328.97;4906182;29;972;-80
2021/09/09 12:10:47;;;;;;;;;;;;;;;22.32;29.94;98321.59;4906247;29;1126;-79
2021/09/09 12:13:12;;;;;;;;;;;;;;;22.34;29.71;98319.13;4906583;29;632;-80
2021/09/09 12:15:37;;;;;;;;;;;;;;;22.43;29.72;98318.50;4906483;29;1453;-81
2021/09/09 12:18:07;;;;;;;;;;;;;;;22.56;29.77;98311.69;4907290;29;667;-80
2021/09/09 12:20:34;;;;;;;;;;;;;;;22.41;29.83;98310.44;4906281;29;983;-80
2021/09/09 12:23:00;;;;;;;;;;;;;;;22.35;29.92;98317.88;4906597;29;1969;-79
2021/09/09 12:25:29;;;;;;;;;;;;;;;22.19;30.44;98307.34;4907133;29;987;-80
2021/09/09 12:28:14;;;;;;;;;;;;;;;22.36;30.05;98308.94;4907189;29;667;-80
2021/09/09 12:30:47;;;;;;;;;;;;;;;22.40;29.91;98316.56;4906398;29;668;-80
2021/09/09 12:33:19;;;;;;;;;;;;;;;22.45;29.77;98299.03;4906565;29;605;-80
2021/09/09 12:36:01;;;;;;;;;;;;;;;22.42;29.91;98311.22;4905904;29;937;-80
2021/09/09 12:38:45;;;;;;;;;;;;;;;22.41;30.02;98303.97;4906465;29;927;-80
2021/09/09 12:41:17;;;;;;;;;;;;;;;22.36;29.86;98297.59;4906024;29;1006;-80
2021/09/09 12:43:58;;;;;;;;;;;;;;;22.33;30.04;98290.00;4906732;29;1896;-80
2021/09/09 12:46:24;;;;;;;;;;;;;;;22.54;29.85;98296.38;4907037;29;629;-80
2021/09/09 12:49:03;;;;;;;;;;;;;;;22.51;29.99;98288.72;4906075;29;636;-80
2021/09/09 12:51:28;;;;;;;;;;;;;;;22.49;29.96;98288.38;4905759;29;1007;-80
2021/09/09 12:53:54;;;;;;;;;;;;;;;22.36;30.41;98286.25;4906289;29;988;-80
2021/09/09 12:56:19;;;;;;;;;;;;;;;22.39;30.11;98295.13;4905666;29;899;-80
2021/09/09 12:58:45;;;;;;;;;;;;;;;22.41;30.45;98298.31;4906522;29;650;-80
2021/09/09 13:01:10;;;;;;;;;;;;;;;22.46;30.13;98289.25;4905776;29;644;-80